sensor_id;sensor_type;location;lat;lon;timestamp;temperature;humidity
15357;DHT22;7778;48.792;9.260;2024-03-07T00:00:25;7.00;99.90
15357;DHT22;7778;48.792;9.260;2024-03-07T00:03:13;6.80;99.90
15357;DHT22;7778;48.792;9.260;2024-03-07T00:05:59;6.70;99.90
15357;DHT22;7778;48.792;9.260;2024-03-07T00:08:44;6.70;99.90
15357;DHT22;7778;48.792;9.260;2024-03-07T00:11:30;6.60;99.90
15357;DHT22;7778;48.792;9.260;2024-03-07T00:14:15;6.70;99.90
15357;DHT22;7778;48.792;9.260;2024-03-07T00:17:01;6.60;99.90
15357;DHT22;7778;48.792;9.260;2024-03-07T00:19:48;6.70;99.90
15357;DHT22;7778;48.792;9.260;2024-03-07T00:22:34;6.70;99.90
15357;DHT22;7778;48.792;9.260;2024-03-07T00:25:19;6.80;99.90
15357;DHT22;7778;48.792;9.260;2024-03-07T00:28:06;6.90;99.90
15357;DHT22;7778;48.792;9.260;2024-03-07T00:30:51;6.80;99.90
15357;DHT22;7778;48.792;9.260;2024-03-07T00:33:37;6.60;99.90
15357;DHT22;7778;48.792;9.260;2024-03-07T00:36:24;6.50;99.90
15357;DHT22;7778;48.792;9.260;2024-03-07T00:39:09;6.60;99.90
15357;DHT22;7778;48.792;9.260;2024-03-07T00:41:55;6.70;99.90
15357;DHT22;7778;48.792;9.260;2024-03-07T00:44:41;7.00;99.90
15357;DHT22;7778;48.792;9.260;2024-03-07T00:47:27;7.00;99.90
15357;DHT22;7778;48.792;9.260;2024-03-07T00:50:12;7.00;99.90
15357;DHT22;7778;48.792;9.260;2024-03-07T00:53:00;7.10;99.90
15357;DHT22;7778;48.792;9.260;2024-03-07T00:55:45;7.10;99.90
15357;DHT22;7778;48.792;9.260;2024-03-07T00:58:31;7.10;99.90
15357;DHT22;7778;48.792;9.260;2024-03-07T01:01:16;7.00;99.90
15357;DHT22;7778;48.792;9.260;2024-03-07T01:04:03;7.10;99.90
15357;DHT22;7778;48.792;9.260;2024-03-07T01:06:49;7.10;99.90
15357;DHT22;7778;48.792;9.260;2024-03-07T01:09:37;7.00;99.90
15357;DHT22;7778;48.792;9.260;2024-03-07T01:12:22;7.00;99.90
15357;DHT22;7778;48.792;9.260;2024-03-07T01:15:14;7.10;99.90
15357;DHT22;7778;48.792;9.260;2024-03-07T01:18:00;6.80;99.90
15357;DHT22;7778;48.792;9.260;2024-03-07T01:20:46;6.70;99.90
15357;DHT22;7778;48.792;9.260;2024-03-07T01:23:32;6.60;99.90
15357;DHT22;7778;48.792;9.260;2024-03-07T01:26:18;6.60;99.90
15357;DHT22;7778;48.792;9.260;2024-03-07T01:29:04;6.60;99.90
15357;DHT22;7778;48.792;9.260;2024-03-07T01:31:51;6.60;99.90
15357;DHT22;7778;48.792;9.260;2024-03-07T01:34:36;6.30;99.90
15357;DHT22;7778;48.792;9.260;2024-03-07T01:37:22;6.10;99.90
15357;DHT22;7778;48.792;9.260;2024-03-07T01:40:08;6.00;99.90
15357;DHT22;7778;48.792;9.260;2024-03-07T01:42:57;6.00;99.90
15357;DHT22;7778;48.792;9.260;2024-03-07T01:45:42;5.80;99.90
15357;DHT22;7778;48.792;9.260;2024-03-07T01:48:28;5.90;99.90
15357;DHT22;7778;48.792;9.260;2024-03-07T01:51:15;5.90;99.90
15357;DHT22;7778;48.792;9.260;2024-03-07T01:54:02;5.90;99.90
15357;DHT22;7778;48.792;9.260;2024-03-07T01:56:48;6.00;99.90
15357;DHT22;7778;48.792;9.260;2024-03-07T01:59:35;6.10;99.90
15357;DHT22;7778;48.792;9.260;2024-03-07T02:02:22;6.10;99.90
15357;DHT22;7778;48.792;9.260;2024-03-07T02:05:08;6.10;99.90
15357;DHT22;7778;48.792;9.260;2024-03-07T02:07:54;6.20;99.90
15357;DHT22;7778;48.792;9.260;2024-03-07T02:10:40;6.00;99.90
15357;DHT22;7778;48.792;9.260;2024-03-07T02:13:26;5.90;99.90
15357;DHT22;7778;48.792;9.260;2024-03-07T02:16:13;5.80;99.90
15357;DHT22;7778;48.792;9.260;2024-03-07T02:18:59;5.70;99.90
15357;DHT22;7778;48.792;9.260;2024-03-07T02:21:47;5.60;99.90
15357;DHT22;7778;48.792;9.260;2024-03-07T02:24:32;5.50;99.90
15357;DHT22;7778;48.792;9.260;2024-03-07T02:27:18;5.50;99.90
15357;DHT22;7778;48.792;9.260;2024-03-07T02:30:04;5.40;99.90
15357;DHT22;7778;48.792;9.260;2024-03-07T02:32:52;5.30;99.90
15357;DHT22;7778;48.792;9.260;2024-03-07T02:35:39;5.20;99.90
15357;DHT22;7778;48.792;9.260;2024-03-07T02:38:26;5.10;99.90
15357;DHT22;7778;48.792;9.260;2024-03-07T02:41:11;5.00;99.90
15357;DHT22;7778;48.792;9.260;2024-03-07T02:43:57;4.90;99.90
15357;DHT22;7778;48.792;9.260;2024-03-07T02:46:42;4.90;99.90
15357;DHT22;7778;48.792;9.260;2024-03-07T02:49:28;4.90;99.90
15357;DHT22;7778;48.792;9.260;2024-03-07T02:52:13;4.80;99.90
15357;DHT22;7778;48.792;9.260;2024-03-07T02:55:01;4.70;99.90
15357;DHT22;7778;48.792;9.260;2024-03-07T02:57:47;4.70;99.90
15357;DHT22;7778;48.792;9.260;2024-03-07T03:00:32;4.60;99.90
15357;DHT22;7778;48.792;9.260;2024-03-07T03:03:18;4.50;99.90
15357;DHT22;7778;48.792;9.260;2024-03-07T03:06:04;4.40;99.90
15357;DHT22;7778;48.792;9.260;2024-03-07T03:08:50;4.50;99.90
15357;DHT22;7778;48.792;9.260;2024-03-07T03:11:39;4.30;99.90
15357;DHT22;7778;48.792;9.260;2024-03-07T03:14:25;4.40;99.90
15357;DHT22;7778;48.792;9.260;2024-03-07T03:17:10;4.40;99.90
15357;DHT22;7778;48.792;9.260;2024-03-07T03:19:56;4.40;99.90
15357;DHT22;7778;48.792;9.260;2024-03-07T03:22:41;4.30;99.90
15357;DHT22;7778;48.792;9.260;2024-03-07T03:25:28;4.30;99.90
15357;DHT22;7778;48.792;9.260;2024-03-07T03:28:14;4.40;99.90
15357;DHT22;7778;48.792;9.260;2024-03-07T03:31:00;4.30;99.90
15357;DHT22;7778;48.792;9.260;2024-03-07T03:33:46;4.30;99.90
15357;DHT22;7778;48.792;9.260;2024-03-07T03:36:32;4.30;99.90
15357;DHT22;7778;48.792;9.260;2024-03-07T03:39:18;4.30;99.90
15357;DHT22;7778;48.792;9.260;2024-03-07T03:42:05;4.20;99.90
15357;DHT22;7778;48.792;9.260;2024-03-07T03:44:53;4.10;99.90
15357;DHT22;7778;48.792;9.260;2024-03-07T03:47:38;4.10;99.90
15357;DHT22;7778;48.792;9.260;2024-03-07T03:50:24;4.00;99.90
15357;DHT22;7778;48.792;9.260;2024-03-07T03:53:09;4.00;99.90
15357;DHT22;7778;48.792;9.260;2024-03-07T03:55:56;3.90;99.90
15357;DHT22;7778;48.792;9.260;2024-03-07T03:58:41;3.80;99.90
15357;DHT22;7778;48.792;9.260;2024-03-07T04:01:28;3.90;99.90
15357;DHT22;7778;48.792;9.260;2024-03-07T04:04:14;4.00;99.90
15357;DHT22;7778;48.792;9.260;2024-03-07T04:06:59;4.10;99.90
15357;DHT22;7778;48.792;9.260;2024-03-07T04:09:45;4.00;99.90
15357;DHT22;7778;48.792;9.260;2024-03-07T04:12:31;4.00;99.90
15357;DHT22;7778;48.792;9.260;2024-03-07T04:15:17;3.90;99.90
15357;DHT22;7778;48.792;9.260;2024-03-07T04:18:04;3.80;99.90
15357;DHT22;7778;48.792;9.260;2024-03-07T04:20:50;3.70;99.90
15357;DHT22;7778;48.792;9.260;2024-03-07T04:23:35;3.50;99.90
15357;DHT22;7778;48.792;9.260;2024-03-07T04:26:23;3.40;99.90
15357;DHT22;7778;48.792;9.260;2024-03-07T04:29:10;3.30;99.90
15357;DHT22;7778;48.792;9.260;2024-03-07T04:31:56;3.20;99.90
15357;DHT22;7778;48.792;9.260;2024-03-07T04:34:43;3.20;99.90
15357;DHT22;7778;48.792;9.260;2024-03-07T04:37:29;2.90;99.90
15357;DHT22;7778;48.792;9.260;2024-03-07T04:40:15;2.90;99.90
15357;DHT22;7778;48.792;9.260;2024-03-07T04:43:01;2.70;99.90
15357;DHT22;7778;48.792;9.260;2024-03-07T04:45:46;2.70;99.90
15357;DHT22;7778;48.792;9.260;2024-03-07T04:48:32;2.60;99.90
15357;DHT22;7778;48.792;9.260;2024-03-07T04:51:18;2.60;99.90
15357;DHT22;7778;48.792;9.260;2024-03-07T04:54:05;2.60;99.90
15357;DHT22;7778;48.792;9.260;2024-03-07T04:56:51;2.60;99.90
15357;DHT22;7778;48.792;9.260;2024-03-07T04:59:37;2.50;99.90
15357;DHT22;7778;48.792;9.260;2024-03-07T05:02:23;2.50;99.90
15357;DHT22;7778;48.792;9.260;2024-03-07T05:05:09;2.40;99.90
15357;DHT22;7778;48.792;9.260;2024-03-07T05:07:57;2.40;99.90
15357;DHT22;7778;48.792;9.260;2024-03-07T05:10:42;2.50;99.90
15357;DHT22;7778;48.792;9.260;2024-03-07T05:13:28;2.60;99.90
15357;DHT22;7778;48.792;9.260;2024-03-07T05:16:15;2.60;99.90
15357;DHT22;7778;48.792;9.260;2024-03-07T05:19:01;2.50;99.90
15357;DHT22;7778;48.792;9.260;2024-03-07T05:21:49;2.90;99.90
15357;DHT22;7778;48.792;9.260;2024-03-07T05:24:36;2.60;99.90
15357;DHT22;7778;48.792;9.260;2024-03-07T05:27:21;2.60;99.90
15357;DHT22;7778;48.792;9.260;2024-03-07T05:30:08;2.60;99.90
15357;DHT22;7778;48.792;9.260;2024-03-07T05:32:55;2.70;99.90
15357;DHT22;7778;48.792;9.260;2024-03-07T05:35:42;3.00;99.90
15357;DHT22;7778;48.792;9.260;2024-03-07T05:38:28;2.90;99.90
15357;DHT22;7778;48.792;9.260;2024-03-07T05:41:14;2.90;99.90
15357;DHT22;7778;48.792;9.260;2024-03-07T05:44:00;2.90;99.90
15357;DHT22;7778;48.792;9.260;2024-03-07T05:46:46;2.90;99.90
15357;DHT22;7778;48.792;9.260;2024-03-07T05:49:32;2.80;99.90
15357;DHT22;7778;48.792;9.260;2024-03-07T05:52:18;2.80;99.90
15357;DHT22;7778;48.792;9.260;2024-03-07T05:55:04;2.80;99.90
15357;DHT22;7778;48.792;9.260;2024-03-07T05:57:52;2.80;99.90
15357;DHT22;7778;48.792;9.260;2024-03-07T06:00:38;2.80;99.90
15357;DHT22;7778;48.792;9.260;2024-03-07T06:03:23;2.80;99.90
15357;DHT22;7778;48.792;9.260;2024-03-07T06:06:09;2.80;99.90
15357;DHT22;7778;48.792;9.260;2024-03-07T06:08:56;2.80;99.90
15357;DHT22;7778;48.792;9.260;2024-03-07T06:11:41;2.80;99.90
15357;DHT22;7778;48.792;9.260;2024-03-07T06:14:29;2.90;99.90
15357;DHT22;7778;48.792;9.260;2024-03-07T06:17:14;2.90;99.90
15357;DHT22;7778;48.792;9.260;2024-03-07T06:20:02;2.90;99.90
15357;DHT22;7778;48.792;9.260;2024-03-07T06:22:51;2.90;99.90
15357;DHT22;7778;48.792;9.260;2024-03-07T06:25:37;3.00;99.90
15357;DHT22;7778;48.792;9.260;2024-03-07T06:28:31;3.00;99.90
15357;DHT22;7778;48.792;9.260;2024-03-07T06:31:18;2.90;99.90
15357;DHT22;7778;48.792;9.260;2024-03-07T06:34:04;3.00;99.90
15357;DHT22;7778;48.792;9.260;2024-03-07T06:36:50;3.10;99.90
15357;DHT22;7778;48.792;9.260;2024-03-07T06:39:36;3.10;99.90
15357;DHT22;7778;48.792;9.260;2024-03-07T06:42:21;3.50;99.90
15357;DHT22;7778;48.792;9.260;2024-03-07T06:45:07;3.30;99.90
15357;DHT22;7778;48.792;9.260;2024-03-07T06:47:55;3.40;99.90
15357;DHT22;7778;48.792;9.260;2024-03-07T06:50:40;3.40;99.90
15357;DHT22;7778;48.792;9.260;2024-03-07T06:53:28;3.80;99.90
15357;DHT22;7778;48.792;9.260;2024-03-07T06:56:14;4.20;99.90
15357;DHT22;7778;48.792;9.260;2024-03-07T06:59:01;4.40;99.90
15357;DHT22;7778;48.792;9.260;2024-03-07T07:01:48;3.90;99.90
15357;DHT22;7778;48.792;9.260;2024-03-07T07:04:36;3.50;99.90
15357;DHT22;7778;48.792;9.260;2024-03-07T07:07:27;3.40;99.90
15357;DHT22;7778;48.792;9.260;2024-03-07T07:10:13;3.50;99.90
15357;DHT22;7778;48.792;9.260;2024-03-07T07:13:02;3.70;99.90
15357;DHT22;7778;48.792;9.260;2024-03-07T07:15:48;3.90;99.90
15357;DHT22;7778;48.792;9.260;2024-03-07T07:18:34;3.90;99.90
15357;DHT22;7778;48.792;9.260;2024-03-07T07:21:22;4.00;99.90
15357;DHT22;7778;48.792;9.260;2024-03-07T07:24:08;4.20;99.90
15357;DHT22;7778;48.792;9.260;2024-03-07T07:26:55;4.00;99.90
15357;DHT22;7778;48.792;9.260;2024-03-07T07:29:40;4.00;99.90
15357;DHT22;7778;48.792;9.260;2024-03-07T07:32:26;4.00;99.90
15357;DHT22;7778;48.792;9.260;2024-03-07T07:35:12;3.80;99.90
15357;DHT22;7778;48.792;9.260;2024-03-07T07:38:00;3.60;99.90
15357;DHT22;7778;48.792;9.260;2024-03-07T07:40:46;3.50;99.90
15357;DHT22;7778;48.792;9.260;2024-03-07T07:43:32;3.50;99.90
15357;DHT22;7778;48.792;9.260;2024-03-07T07:46:17;3.60;99.90
15357;DHT22;7778;48.792;9.260;2024-03-07T07:49:03;3.90;99.90
15357;DHT22;7778;48.792;9.260;2024-03-07T07:51:49;3.80;99.90
15357;DHT22;7778;48.792;9.260;2024-03-07T07:54:35;3.80;99.90
15357;DHT22;7778;48.792;9.260;2024-03-07T07:57:21;3.90;99.90
15357;DHT22;7778;48.792;9.260;2024-03-07T08:00:10;4.10;99.90
15357;DHT22;7778;48.792;9.260;2024-03-07T08:03:05;4.30;99.90
15357;DHT22;7778;48.792;9.260;2024-03-07T08:05:51;4.20;99.90
15357;DHT22;7778;48.792;9.260;2024-03-07T08:08:38;4.30;99.90
15357;DHT22;7778;48.792;9.260;2024-03-07T08:11:26;4.50;99.90
15357;DHT22;7778;48.792;9.260;2024-03-07T08:14:11;4.70;99.90
15357;DHT22;7778;48.792;9.260;2024-03-07T08:16:57;4.70;99.90
15357;DHT22;7778;48.792;9.260;2024-03-07T08:19:43;4.80;99.90
15357;DHT22;7778;48.792;9.260;2024-03-07T08:22:28;4.80;99.90
15357;DHT22;7778;48.792;9.260;2024-03-07T08:25:14;4.60;99.90
15357;DHT22;7778;48.792;9.260;2024-03-07T08:28:01;4.30;99.90
15357;DHT22;7778;48.792;9.260;2024-03-07T08:30:47;4.20;99.90
15357;DHT22;7778;48.792;9.260;2024-03-07T08:33:33;4.40;99.90
15357;DHT22;7778;48.792;9.260;2024-03-07T08:36:18;4.40;99.90
15357;DHT22;7778;48.792;9.260;2024-03-07T08:39:04;4.30;99.90
15357;DHT22;7778;48.792;9.260;2024-03-07T08:41:55;4.20;99.90
15357;DHT22;7778;48.792;9.260;2024-03-07T08:44:42;4.60;99.90
15357;DHT22;7778;48.792;9.260;2024-03-07T08:47:27;4.80;99.90
15357;DHT22;7778;48.792;9.260;2024-03-07T08:50:15;5.20;99.90
15357;DHT22;7778;48.792;9.260;2024-03-07T08:53:02;5.50;99.90
15357;DHT22;7778;48.792;9.260;2024-03-07T08:55:48;5.00;99.90
15357;DHT22;7778;48.792;9.260;2024-03-07T08:58:34;5.20;99.90
15357;DHT22;7778;48.792;9.260;2024-03-07T09:01:21;5.20;99.90
15357;DHT22;7778;48.792;9.260;2024-03-07T09:04:07;5.20;99.90
15357;DHT22;7778;48.792;9.260;2024-03-07T09:06:53;5.50;99.90
15357;DHT22;7778;48.792;9.260;2024-03-07T09:09:39;5.90;99.90
15357;DHT22;7778;48.792;9.260;2024-03-07T09:12:24;6.20;99.90
15357;DHT22;7778;48.792;9.260;2024-03-07T09:15:11;6.70;99.90
15357;DHT22;7778;48.792;9.260;2024-03-07T09:17:58;7.00;99.90
15357;DHT22;7778;48.792;9.260;2024-03-07T09:20:45;7.30;99.90
15357;DHT22;7778;48.792;9.260;2024-03-07T09:23:32;7.30;99.90
15357;DHT22;7778;48.792;9.260;2024-03-07T09:26:17;7.30;99.90
15357;DHT22;7778;48.792;9.260;2024-03-07T09:29:03;7.50;99.90
15357;DHT22;7778;48.792;9.260;2024-03-07T09:31:50;7.80;99.90
15357;DHT22;7778;48.792;9.260;2024-03-07T09:34:38;7.50;99.90
15357;DHT22;7778;48.792;9.260;2024-03-07T09:37:24;7.70;99.90
15357;DHT22;7778;48.792;9.260;2024-03-07T09:40:11;7.30;99.90
15357;DHT22;7778;48.792;9.260;2024-03-07T09:42:57;7.20;99.90
15357;DHT22;7778;48.792;9.260;2024-03-07T09:45:44;7.80;99.90
15357;DHT22;7778;48.792;9.260;2024-03-07T09:48:32;8.30;99.90
15357;DHT22;7778;48.792;9.260;2024-03-07T09:51:20;8.20;99.90
15357;DHT22;7778;48.792;9.260;2024-03-07T09:54:07;8.30;99.90
15357;DHT22;7778;48.792;9.260;2024-03-07T09:56:53;8.00;99.90
15357;DHT22;7778;48.792;9.260;2024-03-07T09:59:42;7.50;99.90
15357;DHT22;7778;48.792;9.260;2024-03-07T10:02:29;7.50;99.90
15357;DHT22;7778;48.792;9.260;2024-03-07T10:05:17;8.90;99.90
15357;DHT22;7778;48.792;9.260;2024-03-07T10:08:06;10.10;99.90
15357;DHT22;7778;48.792;9.260;2024-03-07T10:10:52;10.70;99.90
15357;DHT22;7778;48.792;9.260;2024-03-07T10:13:41;11.20;99.90
15357;DHT22;7778;48.792;9.260;2024-03-07T10:16:27;11.20;99.90
15357;DHT22;7778;48.792;9.260;2024-03-07T10:19:13;11.60;99.90
15357;DHT22;7778;48.792;9.260;2024-03-07T10:21:58;11.40;99.90
15357;DHT22;7778;48.792;9.260;2024-03-07T10:24:53;10.70;99.90
15357;DHT22;7778;48.792;9.260;2024-03-07T10:27:40;10.30;99.90
15357;DHT22;7778;48.792;9.260;2024-03-07T10:30:26;9.90;99.90
15357;DHT22;7778;48.792;9.260;2024-03-07T10:33:12;9.30;99.90
15357;DHT22;7778;48.792;9.260;2024-03-07T10:36:00;9.10;99.90
15357;DHT22;7778;48.792;9.260;2024-03-07T10:38:45;8.80;99.90
15357;DHT22;7778;48.792;9.260;2024-03-07T10:41:35;8.60;99.90
15357;DHT22;7778;48.792;9.260;2024-03-07T10:44:25;8.60;99.90
15357;DHT22;7778;48.792;9.260;2024-03-07T10:47:16;8.70;99.90
15357;DHT22;7778;48.792;9.260;2024-03-07T10:50:08;8.30;99.90
15357;DHT22;7778;48.792;9.260;2024-03-07T10:53:02;8.20;99.90
15357;DHT22;7778;48.792;9.260;2024-03-07T10:56:01;7.60;99.90
15357;DHT22;7778;48.792;9.260;2024-03-07T10:59:06;7.30;99.90
15357;DHT22;7778;48.792;9.260;2024-03-07T11:01:59;7.70;99.90
15357;DHT22;7778;48.792;9.260;2024-03-07T11:04:52;7.70;99.90
15357;DHT22;7778;48.792;9.260;2024-03-07T11:07:40;7.50;99.90
15357;DHT22;7778;48.792;9.260;2024-03-07T11:10:26;7.90;99.90
15357;DHT22;7778;48.792;9.260;2024-03-07T11:13:13;8.20;99.90
15357;DHT22;7778;48.792;9.260;2024-03-07T11:16:02;8.50;99.90
15357;DHT22;7778;48.792;9.260;2024-03-07T11:19:19;8.80;99.90
15357;DHT22;7778;48.792;9.260;2024-03-07T11:22:05;9.00;99.90
15357;DHT22;7778;48.792;9.260;2024-03-07T11:25:04;9.00;99.90
15357;DHT22;7778;48.792;9.260;2024-03-07T11:27:53;8.80;99.90
15357;DHT22;7778;48.792;9.260;2024-03-07T11:30:40;8.80;99.90
15357;DHT22;7778;48.792;9.260;2024-03-07T11:33:27;8.70;99.90
15357;DHT22;7778;48.792;9.260;2024-03-07T11:36:13;8.40;99.90
15357;DHT22;7778;48.792;9.260;2024-03-07T11:39:46;8.20;99.90
15357;DHT22;7778;48.792;9.260;2024-03-07T11:42:34;8.60;99.90
15357;DHT22;7778;48.792;9.260;2024-03-07T11:45:21;8.40;99.90
15357;DHT22;7778;48.792;9.260;2024-03-07T11:48:10;8.40;99.90
15357;DHT22;7778;48.792;9.260;2024-03-07T11:50:57;8.30;99.90
15357;DHT22;7778;48.792;9.260;2024-03-07T11:53:44;8.00;99.90
15357;DHT22;7778;48.792;9.260;2024-03-07T11:56:31;8.10;99.90
15357;DHT22;7778;48.792;9.260;2024-03-07T11:59:17;8.20;99.90
15357;DHT22;7778;48.792;9.260;2024-03-07T12:02:03;8.20;99.90
15357;DHT22;7778;48.792;9.260;2024-03-07T12:04:49;8.20;99.90
15357;DHT22;7778;48.792;9.260;2024-03-07T12:07:36;8.00;99.90
15357;DHT22;7778;48.792;9.260;2024-03-07T12:10:22;8.00;99.90
15357;DHT22;7778;48.792;9.260;2024-03-07T12:13:09;8.00;99.90
15357;DHT22;7778;48.792;9.260;2024-03-07T12:15:55;7.90;99.90
15357;DHT22;7778;48.792;9.260;2024-03-07T12:18:42;7.70;99.90
15357;DHT22;7778;48.792;9.260;2024-03-07T12:21:28;7.70;99.90
15357;DHT22;7778;48.792;9.260;2024-03-07T12:24:15;7.90;99.90
15357;DHT22;7778;48.792;9.260;2024-03-07T12:27:05;7.80;99.90
15357;DHT22;7778;48.792;9.260;2024-03-07T12:29:53;7.80;99.90
15357;DHT22;7778;48.792;9.260;2024-03-07T12:32:46;7.90;99.90
15357;DHT22;7778;48.792;9.260;2024-03-07T12:35:33;7.90;99.90
15357;DHT22;7778;48.792;9.260;2024-03-07T12:38:20;8.00;99.90
15357;DHT22;7778;48.792;9.260;2024-03-07T12:41:09;8.00;99.90
15357;DHT22;7778;48.792;9.260;2024-03-07T12:43:58;8.10;99.90
15357;DHT22;7778;48.792;9.260;2024-03-07T12:46:46;8.10;99.90
15357;DHT22;7778;48.792;9.260;2024-03-07T12:49:32;8.10;99.90
15357;DHT22;7778;48.792;9.260;2024-03-07T12:52:17;8.00;99.90
15357;DHT22;7778;48.792;9.260;2024-03-07T12:55:03;8.20;99.90
15357;DHT22;7778;48.792;9.260;2024-03-07T12:57:51;8.40;99.90
15357;DHT22;7778;48.792;9.260;2024-03-07T13:00:39;8.40;99.90
15357;DHT22;7778;48.792;9.260;2024-03-07T13:03:25;8.50;99.90
15357;DHT22;7778;48.792;9.260;2024-03-07T13:06:14;8.30;99.90
15357;DHT22;7778;48.792;9.260;2024-03-07T13:09:03;8.30;99.90
15357;DHT22;7778;48.792;9.260;2024-03-07T13:11:54;8.50;99.90
15357;DHT22;7778;48.792;9.260;2024-03-07T13:14:41;8.70;99.90
15357;DHT22;7778;48.792;9.260;2024-03-07T13:17:28;8.70;99.90
15357;DHT22;7778;48.792;9.260;2024-03-07T13:20:14;8.70;99.90
15357;DHT22;7778;48.792;9.260;2024-03-07T13:22:59;8.70;99.90
15357;DHT22;7778;48.792;9.260;2024-03-07T13:25:46;8.50;99.90
15357;DHT22;7778;48.792;9.260;2024-03-07T13:28:32;8.30;99.90
15357;DHT22;7778;48.792;9.260;2024-03-07T13:31:19;8.10;99.90
15357;DHT22;7778;48.792;9.260;2024-03-07T13:34:05;8.10;99.90
15357;DHT22;7778;48.792;9.260;2024-03-07T13:36:57;8.20;99.90
15357;DHT22;7778;48.792;9.260;2024-03-07T13:39:45;8.20;99.90
15357;DHT22;7778;48.792;9.260;2024-03-07T13:42:31;8.30;99.90
15357;DHT22;7778;48.792;9.260;2024-03-07T13:45:17;8.40;99.90
15357;DHT22;7778;48.792;9.260;2024-03-07T13:48:06;8.30;99.90
15357;DHT22;7778;48.792;9.260;2024-03-07T13:50:52;8.10;99.90
15357;DHT22;7778;48.792;9.260;2024-03-07T13:53:38;8.20;99.90
15357;DHT22;7778;48.792;9.260;2024-03-07T13:56:49;8.20;99.90
15357;DHT22;7778;48.792;9.260;2024-03-07T14:00:17;8.20;99.90
15357;DHT22;7778;48.792;9.260;2024-03-07T14:03:43;8.10;99.90
15357;DHT22;7778;48.792;9.260;2024-03-07T14:06:45;8.00;99.90
15357;DHT22;7778;48.792;9.260;2024-03-07T14:10:02;8.10;99.90
15357;DHT22;7778;48.792;9.260;2024-03-07T14:13:34;8.10;99.90
15357;DHT22;7778;48.792;9.260;2024-03-07T14:16:57;8.10;99.90
15357;DHT22;7778;48.792;9.260;2024-03-07T14:20:42;8.10;99.90
15357;DHT22;7778;48.792;9.260;2024-03-07T14:24:14;8.00;99.90
15357;DHT22;7778;48.792;9.260;2024-03-07T14:27:27;8.20;99.90
15357;DHT22;7778;48.792;9.260;2024-03-07T14:30:24;8.30;99.90
15357;DHT22;7778;48.792;9.260;2024-03-07T14:33:28;8.30;99.90
15357;DHT22;7778;48.792;9.260;2024-03-07T14:36:19;8.20;99.90
15357;DHT22;7778;48.792;9.260;2024-03-07T14:39:20;8.40;99.90
15357;DHT22;7778;48.792;9.260;2024-03-07T14:42:10;8.40;99.90
15357;DHT22;7778;48.792;9.260;2024-03-07T14:44:58;8.40;99.90
15357;DHT22;7778;48.792;9.260;2024-03-07T14:47:45;8.30;99.90
15357;DHT22;7778;48.792;9.260;2024-03-07T14:50:33;8.30;99.90
15357;DHT22;7778;48.792;9.260;2024-03-07T14:53:21;8.30;99.90
15357;DHT22;7778;48.792;9.260;2024-03-07T14:56:07;8.40;99.90
15357;DHT22;7778;48.792;9.260;2024-03-07T14:58:54;8.40;99.90
15357;DHT22;7778;48.792;9.260;2024-03-07T15:01:40;8.30;99.90
15357;DHT22;7778;48.792;9.260;2024-03-07T15:04:27;8.20;99.90
15357;DHT22;7778;48.792;9.260;2024-03-07T15:07:15;8.30;99.90
15357;DHT22;7778;48.792;9.260;2024-03-07T15:10:03;8.20;99.90
15357;DHT22;7778;48.792;9.260;2024-03-07T15:12:51;8.10;99.90
15357;DHT22;7778;48.792;9.260;2024-03-07T15:15:37;7.90;99.90
15357;DHT22;7778;48.792;9.260;2024-03-07T15:18:24;7.90;99.90
15357;DHT22;7778;48.792;9.260;2024-03-07T15:21:10;7.80;99.90
15357;DHT22;7778;48.792;9.260;2024-03-07T15:24:02;7.90;99.90
15357;DHT22;7778;48.792;9.260;2024-03-07T15:26:50;8.00;99.90
15357;DHT22;7778;48.792;9.260;2024-03-07T15:29:36;8.10;99.90
15357;DHT22;7778;48.792;9.260;2024-03-07T15:32:25;8.20;99.90
15357;DHT22;7778;48.792;9.260;2024-03-07T15:35:11;8.30;99.90
15357;DHT22;7778;48.792;9.260;2024-03-07T15:38:01;8.30;99.90
15357;DHT22;7778;48.792;9.260;2024-03-07T15:40:48;8.20;99.90
15357;DHT22;7778;48.792;9.260;2024-03-07T15:43:36;8.10;99.90
15357;DHT22;7778;48.792;9.260;2024-03-07T15:46:22;8.20;99.90
15357;DHT22;7778;48.792;9.260;2024-03-07T15:49:09;8.20;99.90
15357;DHT22;7778;48.792;9.260;2024-03-07T15:51:54;8.30;99.90
15357;DHT22;7778;48.792;9.260;2024-03-07T15:54:40;8.10;99.90
15357;DHT22;7778;48.792;9.260;2024-03-07T15:57:26;8.10;99.90
15357;DHT22;7778;48.792;9.260;2024-03-07T16:00:17;8.00;99.90
15357;DHT22;7778;48.792;9.260;2024-03-07T16:03:08;8.00;99.90
15357;DHT22;7778;48.792;9.260;2024-03-07T16:05:54;7.90;99.90
15357;DHT22;7778;48.792;9.260;2024-03-07T16:08:40;7.90;99.90
15357;DHT22;7778;48.792;9.260;2024-03-07T16:11:26;8.00;99.90
15357;DHT22;7778;48.792;9.260;2024-03-07T16:14:12;8.20;99.90
15357;DHT22;7778;48.792;9.260;2024-03-07T16:16:59;8.10;99.90
15357;DHT22;7778;48.792;9.260;2024-03-07T16:19:45;8.00;99.90
15357;DHT22;7778;48.792;9.260;2024-03-07T16:22:33;8.00;99.90
15357;DHT22;7778;48.792;9.260;2024-03-07T16:25:19;7.80;99.90
15357;DHT22;7778;48.792;9.260;2024-03-07T16:28:06;7.80;99.90
15357;DHT22;7778;48.792;9.260;2024-03-07T16:30:55;7.70;99.90
15357;DHT22;7778;48.792;9.260;2024-03-07T16:33:43;7.70;99.90
15357;DHT22;7778;48.792;9.260;2024-03-07T16:36:29;7.70;99.90
15357;DHT22;7778;48.792;9.260;2024-03-07T16:39:14;7.60;99.90
15357;DHT22;7778;48.792;9.260;2024-03-07T16:42:00;7.70;99.90
15357;DHT22;7778;48.792;9.260;2024-03-07T16:44:46;7.60;99.90
15357;DHT22;7778;48.792;9.260;2024-03-07T16:47:31;7.50;99.90
15357;DHT22;7778;48.792;9.260;2024-03-07T16:50:19;7.60;99.90
15357;DHT22;7778;48.792;9.260;2024-03-07T16:53:05;7.70;99.90
15357;DHT22;7778;48.792;9.260;2024-03-07T16:55:52;7.70;99.90
15357;DHT22;7778;48.792;9.260;2024-03-07T16:58:38;7.80;99.90
15357;DHT22;7778;48.792;9.260;2024-03-07T17:01:23;7.70;99.90
15357;DHT22;7778;48.792;9.260;2024-03-07T17:04:09;7.70;99.90
15357;DHT22;7778;48.792;9.260;2024-03-07T17:06:58;7.70;99.90
15357;DHT22;7778;48.792;9.260;2024-03-07T17:09:44;7.70;99.90
15357;DHT22;7778;48.792;9.260;2024-03-07T17:12:30;7.80;99.90
15357;DHT22;7778;48.792;9.260;2024-03-07T17:15:16;7.70;99.90
15357;DHT22;7778;48.792;9.260;2024-03-07T17:18:04;7.70;99.90
15357;DHT22;7778;48.792;9.260;2024-03-07T17:20:50;7.60;99.90
15357;DHT22;7778;48.792;9.260;2024-03-07T17:23:37;7.60;99.90
15357;DHT22;7778;48.792;9.260;2024-03-07T17:26:22;7.60;99.90
15357;DHT22;7778;48.792;9.260;2024-03-07T17:29:09;7.50;99.90
15357;DHT22;7778;48.792;9.260;2024-03-07T17:31:54;7.50;99.90
15357;DHT22;7778;48.792;9.260;2024-03-07T17:34:40;7.70;99.90
15357;DHT22;7778;48.792;9.260;2024-03-07T17:37:26;7.50;99.90
15357;DHT22;7778;48.792;9.260;2024-03-07T17:40:14;7.40;99.90
15357;DHT22;7778;48.792;9.260;2024-03-07T17:43:00;7.30;99.90
15357;DHT22;7778;48.792;9.260;2024-03-07T17:45:47;7.20;99.90
15357;DHT22;7778;48.792;9.260;2024-03-07T17:48:34;7.20;99.90
15357;DHT22;7778;48.792;9.260;2024-03-07T17:51:20;7.20;99.90
15357;DHT22;7778;48.792;9.260;2024-03-07T17:54:07;7.20;99.90
15357;DHT22;7778;48.792;9.260;2024-03-07T17:56:56;7.20;99.90
15357;DHT22;7778;48.792;9.260;2024-03-07T17:59:42;7.10;99.90
15357;DHT22;7778;48.792;9.260;2024-03-07T18:02:30;7.10;99.90
15357;DHT22;7778;48.792;9.260;2024-03-07T18:05:15;7.00;99.90
15357;DHT22;7778;48.792;9.260;2024-03-07T18:08:03;7.00;99.90
15357;DHT22;7778;48.792;9.260;2024-03-07T18:10:52;7.00;99.90
15357;DHT22;7778;48.792;9.260;2024-03-07T18:13:40;7.10;99.90
15357;DHT22;7778;48.792;9.260;2024-03-07T18:16:25;7.00;99.90